New Salem, PA (15468)

12:00 AM EDT on November 01, 2014 (GMT -0400)
Nick's Weather | Change Station
CLOSE
Current Station
Personal Weather Station
Location: Uniontown, PA
Elevation: 1060 ft
Nearby Weather Stations

Elev 1060 ft 39.90 °N, 79.74 °W | Updated 4 seconds ago

Rain
Rain
41.4 °F
Feels Like 41 °F
N
0.0
Wind Variable Wind from NE
Gusts 0.0 mph

Today
High -- | Low -- °F
--% Chance of Precip.
Yesterday
High -- | Low -- °F
Precip. -- in
7:48 AM 6:16 PM
Waxing Gibbous, 62% visible
Pressure 29.88 in
Visibility 5.0 miles
Clouds Mostly Cloudy 1300 ft
Overcast 2100 ft
Windchill 41 °F
Dew Point 40 °F
Humidity 94%
Rainfall 0.00 in
Snow Depth Not available.
UV 0 out of 12
Pollen .10 out of 12
Air Quality Not available.
Flu Activity Not available.
METAR KMGW 010353Z AUTO 35006KT 5SM -RA BKN013 OVC021 06/03 A2987 RMK AO2 SLP119 P0004 T00610033 TSNO

More Conditions Fewer Conditions

Pressure 29.88 in
Visibility 5.0 miles
Clouds Mostly Cloudy 1300 ft
Overcast 2100 ft
Windchill 41 °F
Dew Point 40 °F
Humidity 94%
Rainfall 0.00 in
Snow Depth Not available.
UV 0 out of 12
Pollen .10 out of 12
Air Quality Not available.
Flu Activity Not available.
METAR KMGW 010353Z AUTO 35006KT 5SM -RA BKN013 OVC021 06/03 A2987 RMK AO2 SLP119 P0004 T00610033 TSNO

More Conditions Fewer Conditions

10-Day Weather Forecast

Almanac

Astronomy

Nov. 01, 2014 Rise Set
Actual Time
Civil Twilight
Nautical Twilight
Astronomical Twilight
Moon
Length of Visible Light
Length of Day
Tomorrow will be .
, % of the Moon is Illuminated

Today's Extremes

State Highs State Lows

Community

WunderPhotos

Upload Photos

1,766,848 photos uploaded!

WunderBlogs® & News

Nearby

Air Quality

  Air Quality AQ Index Pollutant
Not available.

Snow Depth

Station Depth Elevation

Earthquake Activity

City Distance Mag. Time & Date
Minimum magnitude displayed is 2.5.

Coastal Water Temperatures

Place Temperature

Nearby Weather Stations